Time;durP1;ratioP1;P1;durP2;ratioP2;P2;SDS_P1;SDS_P2;PMS_P1;PMS_P2;Temp;Humidity;BMP_temperature;BMP_pressure;BME280_temperature;BME280_humidity;BME280_pressure;Samples;Min_cycle;Max_cycle;Signal;HPM_P1;HPM_P2
2023/07/13 00:02:21;;;;;;;5.23;1.50;;;;;;;18.30;85.54;100774.66;5061885;28;20519;-71
2023/07/13 00:04:47;;;;;;;4.57;1.20;;;;;;;18.31;85.41;100775.44;5060187;28;20461;-70
2023/07/13 00:07:14;;;;;;;5.60;1.97;;;;;;;18.40;84.97;100776.91;5055714;28;20498;-70
2023/07/13 00:09:41;;;;;;;5.10;1.30;;;;;;;18.40;84.12;100774.16;5066327;28;20989;-71
2023/07/13 00:12:24;;;;;;;5.17;1.67;;;;;;;18.32;84.30;100764.13;5075708;28;20449;-71
2023/07/13 00:14:51;;;;;;;5.80;1.33;;;;;;;18.30;84.24;100763.69;5069593;28;21021;-70
2023/07/13 00:17:18;;;;;;;5.77;1.63;;;;;;;18.31;83.93;100773.50;5063626;28;20549;-70
2023/07/13 00:19:46;;;;;;;5.20;1.70;;;;;;;18.26;85.03;100776.50;5061176;28;20520;-70
2023/07/13 00:22:13;;;;;;;5.50;1.20;;;;;;;18.26;84.69;100773.75;5075559;28;20440;-70
2023/07/13 00:24:41;;;;;;;5.67;1.67;;;;;;;18.23;85.80;100773.66;5066697;28;20550;-70
2023/07/13 00:27:08;;;;;;;6.47;1.70;;;;;;;18.23;85.69;100773.66;5065378;28;20537;-71
2023/07/13 00:29:35;;;;;;;5.37;1.60;;;;;;;18.15;85.99;100780.91;5057163;28;20454;-70
2023/07/13 00:32:03;;;;;;;4.97;1.50;;;;;;;18.11;85.67;100778.03;5058625;28;20497;-71
2023/07/13 00:34:30;;;;;;;5.17;1.50;;;;;;;18.11;85.92;100775.31;5069656;28;20462;-70
2023/07/13 00:36:58;;;;;;;5.77;1.80;;;;;;;18.10;85.84;100772.88;5060568;28;20462;-71
2023/07/13 00:39:25;;;;;;;7.50;1.60;;;;;;;18.03;86.13;100776.22;5055858;28;20478;-71
2023/07/13 00:41:52;;;;;;;5.80;1.63;;;;;;;18.04;86.64;100769.59;5054781;28;20973;-71
2023/07/13 00:44:20;;;;;;;5.40;1.70;;;;;;;17.98;86.78;100770.19;5066720;28;20536;-71
2023/07/13 00:46:47;;;;;;;5.57;1.73;;;;;;;17.93;88.00;100768.50;5067966;28;20465;-70
2023/07/13 00:49:17;;;;;;;5.20;1.50;;;;;;;17.86;87.95;100769.06;5056842;28;20561;-70
2023/07/13 00:51:48;;;;;;;5.97;1.90;;;;;;;17.89;87.82;100767.59;5067490;28;20460;-70
2023/07/13 00:54:30;;;;;;;4.97;1.27;;;;;;;17.85;87.38;100764.75;5072521;28;20576;-70
2023/07/13 00:57:00;;;;;;;5.70;1.50;;;;;;;17.87;86.76;100772.59;5069140;28;20904;-70
2023/07/13 00:59:27;;;;;;;5.23;1.50;;;;;;;17.81;86.83;100752.06;5054795;28;20547;-71
2023/07/13 01:01:55;;;;;;;5.00;1.30;;;;;;;17.68;87.65;100764.97;5057046;28;20873;-71
2023/07/13 01:04:24;;;;;;;4.90;1.23;;;;;;;17.63;87.42;100773.41;5074718;28;20449;-71
2023/07/13 01:06:51;;;;;;;6.10;1.80;;;;;;;17.58;88.05;100776.41;5064824;28;20943;-70
2023/07/13 01:09:19;;;;;;;5.07;1.63;;;;;;;17.57;87.46;100775.56;5057733;28;20454;-70
2023/07/13 01:11:46;;;;;;;5.63;1.47;;;;;;;17.49;89.10;100779.25;5054324;28;20468;-70
2023/07/13 01:14:12;;;;;;;5.03;1.30;;;;;;;17.43;89.69;100779.81;5067647;28;20976;-70
2023/07/13 01:16:41;;;;;;;4.70;1.30;;;;;;;17.38;90.01;100765.19;5074262;28;20860;-70
2023/07/13 01:19:19;;;;;;;5.03;1.47;;;;;;;17.52;89.07;100780.50;5063233;28;20485;-72
2023/07/13 01:21:51;;;;;;;5.07;1.17;;;;;;;17.56;88.74;100775.94;5059390;28;20490;-72
2023/07/13 01:24:17;;;;;;;6.00;1.87;;;;;;;17.57;88.46;100774.78;5057534;28;21040;-74
2023/07/13 01:26:44;;;;;;;5.00;1.20;;;;;;;17.55;88.77;100772.38;5064145;28;20485;-72
2023/07/13 01:29:10;;;;;;;5.43;1.50;;;;;;;17.51;89.58;100778.91;5061953;28;20477;-72
2023/07/13 01:31:37;;;;;;;5.63;1.83;;;;;;;17.50;88.97;100774.56;5060991;28;21044;-73
2023/07/13 01:34:04;;;;;;;5.77;1.50;;;;;;;17.41;89.74;100785.63;5066314;28;20548;-72
2023/07/13 01:36:31;;;;;;;5.93;1.70;;;;;;;17.32;89.66;100787.69;5063158;28;20454;-72
2023/07/13 01:38:59;;;;;;;6.63;2.17;;;;;;;17.33;89.91;100787.34;5057706;28;20486;-72
2023/07/13 01:41:26;;;;;;;5.13;1.63;;;;;;;17.31;89.86;100797.03;5055501;28;20458;-72
2023/07/13 01:43:52;;;;;;;6.00;1.50;;;;;;;17.33;89.54;100781.88;5053953;28;20470;-72
2023/07/13 01:46:19;;;;;;;5.07;1.60;;;;;;;17.26;89.74;100791.78;5060530;28;20545;-72
2023/07/13 01:48:45;;;;;;;5.27;1.60;;;;;;;17.17;90.63;100788.34;5067921;28;20488;-72
2023/07/13 01:51:12;;;;;;;5.43;1.53;;;;;;;17.13;89.02;100780.84;5067280;28;20943;-72
2023/07/13 01:53:38;;;;;;;5.60;1.60;;;;;;;17.15;85.09;100775.00;5053339;28;20944;-72
2023/07/13 01:56:06;;;;;;;5.80;2.17;;;;;;;17.02;85.69;100776.13;5053362;28;20450;-73
2023/07/13 01:58:33;;;;;;;6.10;1.70;;;;;;;17.05;87.67;100775.47;5053603;28;20501;-72
2023/07/13 02:01:00;;;;;;;4.80;1.13;;;;;;;16.96;90.05;100777.50;5053397;28;20529;-72
2023/07/13 02:03:26;;;;;;;4.60;1.23;;;;;;;16.94;90.51;100777.03;5053915;28;21026;-72
2023/07/13 02:05:53;;;;;;;5.93;1.57;;;;;;;16.96;89.99;100772.03;5064298;28;20469;-73
2023/07/13 02:08:19;;;;;;;5.80;1.80;;;;;;;16.89;90.38;100770.63;5063872;28;20928;-72
2023/07/13 02:10:46;;;;;;;8.10;2.07;;;;;;;16.78;91.58;100785.09;5061123;28;20535;-73
2023/07/13 02:13:14;;;;;;;5.30;1.60;;;;;;;16.74;91.84;100784.19;5054508;28;20466;-72
2023/07/13 02:15:41;;;;;;;5.10;1.60;;;;;;;16.72;92.11;100784.50;5056016;28;20446;-72
2023/07/13 02:18:08;;;;;;;5.40;1.30;;;;;;;16.79;91.38;100784.75;5056739;28;20489;-72
2023/07/13 02:20:34;;;;;;;6.23;2.20;;;;;;;16.77;91.34;100786.22;5057557;28;20533;-72
2023/07/13 02:23:01;;;;;;;5.07;1.40;;;;;;;16.69;91.82;100789.81;5066718;28;20485;-73
2023/07/13 02:25:28;;;;;;;4.73;1.30;;;;;;;16.71;92.00;100785.59;5059425;28;20494;-72
2023/07/13 02:27:55;;;;;;;6.00;2.03;;;;;;;16.75;91.77;100797.50;5065466;28;20916;-72
2023/07/13 02:30:24;;;;;;;6.47;2.10;;;;;;;16.81;90.94;100785.19;5060250;28;20549;-72
2023/07/13 02:32:51;;;;;;;10.57;2.00;;;;;;;16.75;90.15;100786.56;5052420;28;20981;-72
2023/07/13 02:35:19;;;;;;;5.47;1.63;;;;;;;16.74;90.66;100781.44;5066960;28;20453;-73
2023/07/13 02:37:46;;;;;;;4.80;1.43;;;;;;;16.75;90.14;100783.81;5053998;28;20478;-74
2023/07/13 02:40:12;;;;;;;6.03;1.67;;;;;;;16.62;91.02;100779.41;5066632;28;20482;-74
2023/07/13 02:42:39;;;;;;;8.47;2.00;;;;;;;16.54;91.86;100772.09;5053267;28;20469;-74
2023/07/13 02:45:07;;;;;;;5.40;1.60;;;;;;;16.46;92.73;100757.38;5064448;28;20974;-73
2023/07/13 02:47:35;;;;;;;5.57;1.70;;;;;;;16.33;93.39;100764.72;5062088;28;20485;-73
2023/07/13 02:50:02;;;;;;;6.27;1.80;;;;;;;16.37;93.58;100771.13;5071871;28;20540;-74
2023/07/13 02:52:29;;;;;;;6.37;2.03;;;;;;;16.46;92.82;100781.19;5066438;28;20966;-73
2023/07/13 02:54:55;;;;;;;6.20;2.03;;;;;;;16.46;92.18;100781.97;5059240;28;20552;-73
2023/07/13 02:57:22;;;;;;;5.90;1.97;;;;;;;16.47;91.62;100780.03;5065031;28;20494;-73
2023/07/13 02:59:49;;;;;;;5.17;1.73;;;;;;;16.33;92.67;100777.59;5064802;28;20484;-74
2023/07/13 03:02:16;;;;;;;5.47;1.70;;;;;;;16.25;93.55;100786.69;5062781;28;20512;-73
2023/07/13 03:04:44;;;;;;;5.83;1.30;;;;;;;16.24;95.35;100799.53;5067103;28;20487;-73
2023/07/13 03:07:11;;;;;;;5.37;1.57;;;;;;;16.33;95.50;100804.94;5067191;28;20485;-73
2023/07/13 03:09:38;;;;;;;5.40;1.60;;;;;;;16.24;95.67;100817.88;5053583;28;20462;-73
2023/07/13 03:12:05;;;;;;;5.40;1.57;;;;;;;16.13;95.96;100806.53;5053807;28;20978;-73
2023/07/13 03:14:31;;;;;;;5.10;1.47;;;;;;;16.14;96.56;100808.94;5052680;28;20838;-73
2023/07/13 03:16:58;;;;;;;5.03;1.57;;;;;;;16.17;97.80;100821.16;5065239;28;20560;-73
2023/07/13 03:19:25;;;;;;;9.17;1.97;;;;;;;16.21;97.30;100822.09;5056391;28;20534;-72
2023/07/13 03:21:53;;;;;;;5.67;1.80;;;;;;;16.00;98.46;100826.72;5060895;28;20449;-72
2023/07/13 03:24:20;;;;;;;5.10;1.57;;;;;;;15.89;99.39;100823.56;5072969;28;20456;-75
2023/07/13 03:26:47;;;;;;;5.90;1.90;;;;;;;16.04;99.96;100827.66;5060589;28;20438;-71
2023/07/13 03:29:13;;;;;;;8.37;2.10;;;;;;;16.17;99.13;100817.63;5051787;28;20903;-70
2023/07/13 03:31:41;;;;;;;7.17;2.00;;;;;;;16.08;99.65;100825.88;5052448;28;20485;-69
2023/07/13 03:34:07;;;;;;;6.10;1.83;;;;;;;16.15;98.42;100826.13;5059954;28;20468;-69
2023/07/13 03:36:34;;;;;;;5.80;2.17;;;;;;;16.15;99.22;100826.94;5071610;28;20835;-69
2023/07/13 03:39:03;;;;;;;6.10;1.97;;;;;;;16.20;98.00;100834.13;5073312;28;20531;-70
2023/07/13 03:41:31;;;;;;;5.13;1.60;;;;;;;16.22;98.84;100829.13;5056516;28;20514;-70
2023/07/13 03:43:58;;;;;;;5.33;1.57;;;;;;;16.24;99.29;100829.59;5059282;28;20490;-70
2023/07/13 03:46:25;;;;;;;6.10;1.90;;;;;;;16.25;98.83;100824.94;5072258;28;20954;-70
2023/07/13 03:48:51;;;;;;;6.17;2.10;;;;;;;16.18;99.57;100835.59;5070465;28;20484;-70
2023/07/13 03:51:19;;;;;;;6.20;2.10;;;;;;;16.13;100.00;100825.66;5072916;28;20456;-70
2023/07/13 03:53:48;;;;;;;7.10;2.33;;;;;;;16.14;100.00;100827.25;5060872;28;20819;-71
2023/07/13 03:56:17;;;;;;;6.00;2.20;;;;;;;16.22;99.89;100831.88;5059796;28;20454;-70
2023/07/13 03:58:46;;;;;;;6.90;2.50;;;;;;;16.27;100.00;100839.06;5064514;28;20481;-70
2023/07/13 04:01:14;;;;;;;6.13;1.70;;;;;;;16.23;100.00;100833.47;5063649;28;20488;-70
2023/07/13 04:03:41;;;;;;;6.23;2.20;;;;;;;16.34;100.00;100834.69;5075909;28;20598;-70
2023/07/13 04:06:10;;;;;;;5.50;1.77;;;;;;;16.44;100.00;100838.16;5066899;28;20542;-70
2023/07/13 04:08:37;;;;;;;8.30;2.10;;;;;;;16.50;100.00;100839.53;5073456;28;20534;-70
2023/07/13 04:11:06;;;;;;;8.00;2.10;;;;;;;16.51;100.00;100838.38;5067340;28;20457;-70
2023/07/13 04:13:34;;;;;;;6.43;1.93;;;;;;;16.53;100.00;100841.59;5055114;28;20537;-70
2023/07/13 04:16:01;;;;;;;7.20;2.47;;;;;;;16.60;100.00;100841.84;5064487;28;20498;-70
2023/07/13 04:18:28;;;;;;;5.30;1.50;;;;;;;16.63;100.00;100838.44;5056370;28;20482;-70
2023/07/13 04:20:54;;;;;;;6.80;2.17;;;;;;;16.61;100.00;100847.00;5058053;28;20492;-70
2023/07/13 04:23:21;;;;;;;6.13;1.90;;;;;;;16.69;100.00;100842.59;5055393;28;20509;-70
2023/07/13 04:25:49;;;;;;;6.00;1.73;;;;;;;16.78;100.00;100848.81;5055283;28;20466;-70
2023/07/13 04:28:17;;;;;;;5.30;1.63;;;;;;;16.78;100.00;100854.28;5060349;28;20486;-70
2023/07/13 04:33:16;;;;;;;5.47;1.53;;;;;;;16.93;100.00;100852.06;5076369;22;20543;-71
2023/07/13 04:35:43;;;;;;;5.87;2.10;;;;;;;17.02;100.00;100850.03;5044875;28;20971;-70
2023/07/13 04:38:11;;;;;;;6.23;2.00;;;;;;;17.03;100.00;100859.81;5044878;28;20490;-69
2023/07/13 04:40:37;;;;;;;6.63;1.83;;;;;;;17.07;100.00;100867.03;5051848;28;20517;-68
2023/07/13 04:43:04;;;;;;;8.77;2.30;;;;;;;17.14;100.00;100874.69;5048525;28;20512;-68
2023/07/13 04:45:31;;;;;;;6.10;1.90;;;;;;;17.16;99.97;100877.88;5052668;28;20462;-69
2023/07/13 04:47:59;;;;;;;6.53;2.47;;;;;;;17.18;99.55;100867.41;5050410;28;20463;-68
2023/07/13 04:50:26;;;;;;;7.50;2.30;;;;;;;17.27;99.59;100870.84;5050558;28;20447;-71
2023/07/13 04:52:53;;;;;;;7.03;2.23;;;;;;;17.34;100.00;100876.56;5043339;28;20514;-70
2023/07/13 04:55:20;;;;;;;7.20;2.20;;;;;;;17.42;100.00;100877.59;5046875;28;20978;-70
2023/07/13 04:57:48;;;;;;;7.53;1.93;;;;;;;17.42;100.00;100869.38;5046463;28;20974;-71
2023/07/13 05:00:16;;;;;;;6.20;1.77;;;;;;;17.45;99.07;100871.47;5050092;28;20568;-75
2023/07/13 05:02:45;;;;;;;7.20;2.23;;;;;;;17.51;98.02;100869.28;5042199;28;20494;-70
2023/07/13 05:05:13;;;;;;;6.07;1.60;;;;;;;17.60;97.24;100864.50;5052245;28;20897;-71
2023/07/13 05:07:40;;;;;;;5.60;1.60;;;;;;;17.57;95.99;100870.66;5053322;28;20528;-70
2023/07/13 05:10:08;;;;;;;6.10;1.40;;;;;;;17.68;95.21;100874.56;5052832;28;20886;-71
2023/07/13 05:12:35;;;;;;;6.37;1.80;;;;;;;17.76;95.51;100872.88;5035710;28;20463;-71
2023/07/13 05:15:02;;;;;;;5.80;1.60;;;;;;;17.87;96.53;100865.78;5051971;28;20454;-70
2023/07/13 05:17:29;;;;;;;5.33;1.40;;;;;;;17.95;96.73;100867.59;5051844;28;20462;-68
2023/07/13 05:19:56;;;;;;;6.00;2.10;;;;;;;18.02;97.40;100869.78;5050221;28;20545;-68
2023/07/13 05:22:24;;;;;;;6.27;1.80;;;;;;;18.09;96.35;100870.78;5058783;28;20868;-68
2023/07/13 05:24:51;;;;;;;5.90;1.70;;;;;;;18.22;94.75;100882.53;5044815;28;20457;-67
2023/07/13 05:27:17;;;;;;;5.80;1.97;;;;;;;18.32;91.95;100878.53;5051392;28;20462;-68
2023/07/13 05:29:44;;;;;;;7.03;1.97;;;;;;;18.43;91.28;100881.59;5044562;28;20542;-67
2023/07/13 05:32:10;;;;;;;10.93;1.90;;;;;;;18.50;90.68;100887.28;5049223;28;20486;-67
2023/07/13 05:34:37;;;;;;;5.60;1.40;;;;;;;18.61;90.63;100891.16;5042174;28;20837;-67
2023/07/13 05:37:04;;;;;;;10.70;1.63;;;;;;;18.72;89.39;100883.25;5046848;28;20547;-67
2023/07/13 05:39:32;;;;;;;5.50;1.90;;;;;;;18.81;90.46;100892.91;5047120;28;20553;-67
2023/07/13 05:41:59;;;;;;;5.40;1.40;;;;;;;18.85;89.98;100882.84;5051100;28;20573;-67
2023/07/13 05:44:25;;;;;;;5.10;1.43;;;;;;;18.92;88.30;100887.75;5043897;28;20449;-67
2023/07/13 05:46:52;;;;;;;7.00;1.60;;;;;;;19.09;85.45;100898.41;5052925;28;20468;-68
2023/07/13 05:49:19;;;;;;;5.87;1.77;;;;;;;19.24;85.65;100894.09;5045326;28;20490;-66
2023/07/13 05:51:45;;;;;;;5.90;1.70;;;;;;;19.37;85.21;100909.34;5050926;28;20573;-66
2023/07/13 05:54:12;;;;;;;5.10;1.50;;;;;;;19.41;84.82;100904.75;5037618;28;20447;-66
2023/07/13 05:56:40;;;;;;;5.57;1.57;;;;;;;19.54;84.93;100912.91;5052122;28;20512;-67
2023/07/13 05:59:06;;;;;;;5.60;1.63;;;;;;;19.67;84.33;100908.97;5050538;28;20484;-67
2023/07/13 06:01:33;;;;;;;4.93;1.10;;;;;;;19.76;82.45;100912.34;5046070;28;20872;-67
2023/07/13 06:04:00;;;;;;;5.70;1.47;;;;;;;19.90;79.92;100911.88;5045941;28;20511;-68
2023/07/13 06:06:27;;;;;;;5.83;1.30;;;;;;;19.94;81.07;100906.47;5034718;28;20483;-70
2023/07/13 06:08:53;;;;;;;6.00;1.40;;;;;;;19.93;78.70;100902.13;5051522;28;20489;-68
2023/07/13 06:11:23;;;;;;;5.13;1.50;;;;;;;19.95;78.03;100908.06;5041101;28;20869;-70
2023/07/13 06:13:52;;;;;;;4.83;0.80;;;;;;;19.94;78.25;100900.97;5047811;28;20486;-70
2023/07/13 06:16:19;;;;;;;5.67;1.60;;;;;;;19.96;79.00;100904.94;5048328;28;20549;-71
2023/07/13 06:18:46;;;;;;;5.33;1.00;;;;;;;20.08;77.94;100913.09;5052302;28;20485;-69
2023/07/13 06:21:15;;;;;;;4.77;1.30;;;;;;;20.19;77.13;100909.78;5051121;28;20500;-70
2023/07/13 06:23:43;;;;;;;5.20;1.37;;;;;;;20.24;77.33;100907.56;5040206;28;20971;-69
2023/07/13 06:26:10;;;;;;;4.90;1.10;;;;;;;20.33;76.92;100904.63;5048086;28;20537;-71
2023/07/13 06:28:39;;;;;;;7.60;1.30;;;;;;;20.33;76.05;100908.16;5047120;28;20466;-70
2023/07/13 06:31:09;;;;;;;5.17;1.10;;;;;;;20.50;76.34;100919.97;5046518;28;20516;-70
2023/07/13 06:33:36;;;;;;;5.67;1.30;;;;;;;20.52;75.94;100912.94;5050212;28;20546;-71
2023/07/13 06:36:04;;;;;;;4.90;0.90;;;;;;;20.64;73.84;100909.25;5048218;28;20489;-69
2023/07/13 06:38:31;;;;;;;5.47;1.37;;;;;;;20.77;74.56;100901.66;5042736;28;20459;-69
2023/07/13 06:40:58;;;;;;;4.60;1.10;;;;;;;20.85;74.68;100895.94;5050233;28;20528;-70
2023/07/13 06:43:25;;;;;;;4.90;1.20;;;;;;;20.94;72.72;100903.97;5047699;28;20497;-69
2023/07/13 06:45:55;;;;;;;4.73;1.00;;;;;;;21.08;73.11;100900.69;5048748;28;20466;-69
2023/07/13 06:48:23;;;;;;;4.43;0.87;;;;;;;21.17;71.58;100904.00;5043298;28;20486;-70
2023/07/13 06:50:51;;;;;;;4.37;0.97;;;;;;;21.19;70.82;100900.88;5047609;28;20469;-70
2023/07/13 06:53:19;;;;;;;7.63;1.47;;;;;;;21.20;71.98;100896.97;5050602;28;20985;-69
2023/07/13 06:55:46;;;;;;;4.80;1.00;;;;;;;21.28;72.17;100893.97;5054416;28;20546;-67
2023/07/13 06:58:13;;;;;;;4.70;1.00;;;;;;;21.38;70.23;100904.44;5049599;28;20527;-68
2023/07/13 07:00:40;;;;;;;5.30;1.00;;;;;;;21.43;69.95;100908.84;5047979;28;20538;-71
2023/07/13 07:03:07;;;;;;;6.80;1.40;;;;;;;21.47;70.42;100900.63;5051597;28;20493;-70
2023/07/13 07:05:34;;;;;;;5.37;1.27;;;;;;;21.51;68.79;100907.78;5050438;28;20955;-70
2023/07/13 07:08:01;;;;;;;4.90;1.17;;;;;;;21.61;67.64;100909.94;5049457;28;20970;-70
2023/07/13 07:10:31;;;;;;;5.50;1.30;;;;;;;21.68;66.69;100900.97;5054008;28;20846;-67
2023/07/13 07:12:57;;;;;;;5.07;1.17;;;;;;;21.68;69.14;100912.00;5056802;28;20509;-66
2023/07/13 07:15:24;;;;;;;4.70;1.20;;;;;;;21.65;67.43;100910.00;5055899;28;20465;-66
2023/07/13 07:17:50;;;;;;;5.33;1.40;;;;;;;21.72;66.66;100918.38;5055682;28;20470;-66
2023/07/13 07:20:17;;;;;;;4.90;1.10;;;;;;;21.75;66.47;100914.91;5054632;28;20545;-66
2023/07/13 07:22:45;;;;;;;5.33;1.30;;;;;;;21.80;66.72;100917.34;5055675;28;20528;-66
2023/07/13 07:25:12;;;;;;;5.17;1.17;;;;;;;21.85;67.79;100911.50;5055085;28;20465;-67
2023/07/13 07:27:39;;;;;;;4.50;1.17;;;;;;;21.88;68.88;100912.75;5055950;28;20549;-66
2023/07/13 07:30:06;;;;;;;4.63;0.93;;;;;;;21.89;67.14;100923.41;5053547;28;20497;-67
2023/07/13 07:32:33;;;;;;;5.07;1.07;;;;;;;22.04;67.84;100921.66;5054125;28;20490;-66
2023/07/13 07:35:00;;;;;;;6.80;1.40;;;;;;;22.16;66.42;100923.44;5054514;28;20466;-66
2023/07/13 07:37:26;;;;;;;4.70;1.10;;;;;;;22.42;60.95;100922.63;5050192;28;20515;-66
2023/07/13 07:39:54;;;;;;;4.73;1.00;;;;;;;22.52;61.71;100916.44;5056373;28;20464;-66
2023/07/13 07:42:21;;;;;;;4.63;0.90;;;;;;;22.58;61.53;100930.75;5052495;28;20492;-65
2023/07/13 07:44:47;;;;;;;5.60;1.33;;;;;;;22.68;60.20;100924.56;5055332;28;20469;-66
2023/07/13 07:47:15;;;;;;;6.50;1.43;;;;;;;22.74;60.46;100931.34;5054136;28;20891;-67
2023/07/13 07:49:41;;;;;;;4.87;1.27;;;;;;;22.83;60.25;100929.06;5054832;28;20978;-66
2023/07/13 07:52:08;;;;;;;4.93;1.13;;;;;;;22.99;59.94;100923.38;5049658;28;20484;-67
2023/07/13 07:54:35;;;;;;;4.57;0.97;;;;;;;23.15;59.81;100935.03;5053548;28;20458;-69
2023/07/13 07:57:03;;;;;;;5.40;1.40;;;;;;;23.26;59.64;100931.56;5050451;28;20528;-65
2023/07/13 07:59:30;;;;;;;4.90;1.30;;;;;;;23.23;58.39;100937.84;5037248;28;20537;-67
2023/07/13 08:01:57;;;;;;;4.60;0.97;;;;;;;23.28;58.80;100938.31;5047861;28;20486;-65
2023/07/13 08:04:23;;;;;;;4.70;1.13;;;;;;;23.27;56.01;100933.16;5044137;28;20546;-66
2023/07/13 08:06:50;;;;;;;5.80;1.20;;;;;;;23.28;54.19;100932.78;5049152;28;20470;-65
2023/07/13 08:09:17;;;;;;;5.73;1.03;;;;;;;23.40;53.24;100931.72;5046802;28;21026;-65
2023/07/13 08:11:43;;;;;;;4.17;0.70;;;;;;;23.35;53.01;100924.56;5048639;28;20477;-64
2023/07/13 08:14:11;;;;;;;5.17;1.10;;;;;;;23.46;53.38;100932.16;5054973;28;20462;-66
2023/07/13 08:16:38;;;;;;;4.30;0.90;;;;;;;23.58;54.14;100931.88;5050300;28;20458;-66
2023/07/13 08:19:05;;;;;;;4.70;1.00;;;;;;;23.52;53.40;100936.19;5051805;28;20454;-67
2023/07/13 08:21:32;;;;;;;4.50;0.87;;;;;;;23.61;53.58;100942.97;5051057;28;20489;-67
2023/07/13 08:23:59;;;;;;;5.47;0.97;;;;;;;23.72;53.19;100931.25;5050380;28;20454;-66
2023/07/13 08:26:25;;;;;;;4.20;0.80;;;;;;;23.83;51.48;100946.75;5050829;28;20493;-65
2023/07/13 08:28:52;;;;;;;4.30;0.97;;;;;;;23.82;52.54;100944.38;5052203;28;20462;-65
2023/07/13 08:31:20;;;;;;;4.27;0.70;;;;;;;23.75;53.78;100941.56;5054012;28;20490;-66
2023/07/13 08:33:47;;;;;;;4.60;1.00;;;;;;;23.71;54.58;100941.50;5045845;28;20545;-66
2023/07/13 08:36:13;;;;;;;4.80;0.90;;;;;;;23.65;54.74;100941.06;5052557;28;20457;-66
2023/07/13 08:38:40;;;;;;;4.97;1.17;;;;;;;23.44;52.62;100942.81;5051474;28;20493;-66
2023/07/13 08:41:13;;;;;;;4.67;0.80;;;;;;;23.33;53.45;100943.50;5040780;28;20538;-66
2023/07/13 08:43:41;;;;;;;4.30;0.80;;;;;;;23.30;53.00;100937.94;5042714;28;20534;-67
2023/07/13 08:46:13;;;;;;;5.03;0.77;;;;;;;23.23;53.80;100932.31;5044067;28;20812;-66
2023/07/13 08:48:47;;;;;;;4.27;0.67;;;;;;;23.28;53.03;100941.06;5048230;28;20802;-66
2023/07/13 08:51:25;;;;;;;4.20;0.80;;;;;;;23.34;53.09;100945.09;5042354;28;21052;-64
2023/07/13 08:53:58;;;;;;;4.20;0.80;;;;;;;23.41;53.61;100942.38;5051316;28;20900;-67
2023/07/13 08:56:29;;;;;;;4.30;0.70;;;;;;;23.32;53.72;100935.56;5049443;28;20443;-67
2023/07/13 08:58:58;;;;;;;4.37;0.77;;;;;;;23.32;52.20;100941.91;5037132;28;20462;-67
2023/07/13 09:01:32;;;;;;;4.23;0.70;;;;;;;23.35;52.18;100930.09;5053936;28;20545;-66
2023/07/13 09:04:07;;;;;;;4.50;0.73;;;;;;;23.37;52.91;100944.34;5053498;28;20457;-67
2023/07/13 09:06:45;;;;;;;4.27;0.70;;;;;;;23.30;53.03;100929.66;5054663;28;20533;-66
2023/07/13 09:09:21;;;;;;;5.00;1.20;;;;;;;23.28;53.13;100938.31;5053639;28;20453;-67
2023/07/13 09:11:53;;;;;;;5.20;1.07;;;;;;;23.43;54.35;100933.72;5052624;28;20466;-67
2023/07/13 09:14:35;;;;;;;4.60;0.90;;;;;;;23.57;53.46;100931.09;5054176;28;20445;-68
2023/07/13 09:17:05;;;;;;;4.47;0.80;;;;;;;23.65;53.44;100932.00;5050493;28;20441;-67
2023/07/13 09:19:35;;;;;;;4.30;0.90;;;;;;;23.73;53.82;100933.66;5053679;28;21023;-67
2023/07/13 09:22:07;;;;;;;4.90;1.17;;;;;;;23.87;50.84;100931.00;5053959;28;20568;-65
2023/07/13 09:24:38;;;;;;;4.40;0.87;;;;;;;24.03;52.01;100929.91;5054380;28;20529;-66
2023/07/13 09:27:17;;;;;;;5.33;0.80;;;;;;;24.14;51.89;100925.25;5054213;28;20430;-67
2023/07/13 09:29:48;;;;;;;4.70;0.90;;;;;;;24.29;51.93;100932.44;5042593;28;20809;-67
2023/07/13 09:32:18;;;;;;;4.47;0.90;;;;;;;24.45;52.55;100932.19;5047758;28;20469;-67
2023/07/13 09:34:52;;;;;;;5.03;1.10;;;;;;;24.53;50.96;100936.59;5042408;28;20514;-66
2023/07/13 09:37:22;;;;;;;4.90;1.10;;;;;;;24.42;50.79;100936.53;5052426;28;20438;-66
2023/07/13 09:39:50;;;;;;;4.40;0.90;;;;;;;24.42;50.05;100935.72;5053928;28;20538;-66
2023/07/13 09:42:19;;;;;;;5.00;1.30;;;;;;;24.56;48.70;100932.25;5052762;28;20489;-67
2023/07/13 09:44:53;;;;;;;5.10;1.50;;;;;;;24.83;47.61;100941.06;5049286;28;20893;-65
2023/07/13 09:47:23;;;;;;;8.83;1.97;;;;;;;25.02;46.19;100934.44;5047409;28;20430;-66
2023/07/13 09:49:58;;;;;;;4.90;1.40;;;;;;;25.00;46.81;100940.34;5036402;28;20453;-65
2023/07/13 09:52:25;;;;;;;6.07;1.80;;;;;;;25.04;47.13;100945.91;5034015;28;20461;-66
2023/07/13 09:54:58;;;;;;;5.27;1.70;;;;;;;25.24;47.43;100941.66;5037418;28;20463;-67
2023/07/13 09:57:27;;;;;;;6.53;1.53;;;;;;;25.09;46.29;100940.00;5045527;28;20449;-66
2023/07/13 09:59:56;;;;;;;4.57;1.37;;;;;;;25.05;46.58;100950.25;5047059;28;20484;-67
2023/07/13 10:02:29;;;;;;;5.60;1.37;;;;;;;24.84;45.52;100951.78;5043334;28;20862;-66
2023/07/13 10:05:03;;;;;;;5.33;1.30;;;;;;;24.66;47.13;100942.59;5053778;28;20453;-66
2023/07/13 10:07:30;;;;;;;6.57;1.43;;;;;;;24.53;49.06;100944.13;5034717;28;20435;-65
2023/07/13 10:09:58;;;;;;;6.23;2.03;;;;;;;24.64;49.41;100951.28;5036558;28;20447;-66
2023/07/13 10:12:25;;;;;;;4.50;1.10;;;;;;;24.73;49.18;100942.63;5045388;28;20489;-66
2023/07/13 10:14:55;;;;;;;5.60;1.30;;;;;;;24.86;49.39;100948.63;5046307;28;20489;-64
2023/07/13 10:17:31;;;;;;;5.03;1.10;;;;;;;24.87;48.81;100945.44;5051047;28;20477;-66
2023/07/13 10:20:04;;;;;;;6.30;0.90;;;;;;;24.92;48.65;100944.25;5049774;28;20888;-70
2023/07/13 10:22:40;;;;;;;5.37;1.20;;;;;;;24.95;47.59;100942.72;5045579;28;20490;-67
2023/07/13 10:25:16;;;;;;;5.73;1.30;;;;;;;24.96;48.07;100949.81;5033123;28;20431;-65
2023/07/13 10:27:44;;;;;;;4.67;0.93;;;;;;;24.89;47.95;100954.19;5039793;28;20469;-66
2023/07/13 10:30:16;;;;;;;4.70;1.20;;;;;;;24.85;48.15;100956.13;5052410;28;20451;-66
2023/07/13 10:32:43;;;;;;;5.33;1.17;;;;;;;24.99;49.67;100952.63;5049433;28;20585;-66
2023/07/13 10:35:15;;;;;;;5.33;1.40;;;;;;;25.06;48.96;100955.44;5053011;28;20818;-69
2023/07/13 10:37:48;;;;;;;5.03;1.30;;;;;;;25.23;46.51;100959.44;5053081;28;20444;-69
2023/07/13 10:40:20;;;;;;;5.03;1.60;;;;;;;25.25;45.13;100950.75;5054732;28;20480;-71
2023/07/13 10:42:50;;;;;;;4.83;1.10;;;;;;;25.38;44.51;100947.22;5052466;28;20581;-70
2023/07/13 10:45:20;;;;;;;5.20;1.20;;;;;;;25.50;44.52;100945.25;5052975;28;20450;-71
2023/07/13 10:47:47;;;;;;;4.90;1.30;;;;;;;25.82;43.83;100948.09;5052874;28;20874;-70
2023/07/13 10:50:20;;;;;;;5.60;1.47;;;;;;;25.99;44.04;100952.84;5052820;28;20488;-70
2023/07/13 10:52:50;;;;;;;5.40;1.30;;;;;;;25.95;41.04;100945.72;5052894;28;20459;-70
2023/07/13 10:55:38;;;;;;;4.77;1.10;;;;;;;25.89;40.70;100945.28;5052533;28;20462;-71
2023/07/13 10:58:14;;;;;;;5.03;1.20;;;;;;;25.85;42.00;100930.63;5053057;28;20522;-70
2023/07/13 11:00:52;;;;;;;7.30;1.27;;;;;;;26.09;41.51;100937.34;5052768;28;20536;-71
2023/07/13 11:03:21;;;;;;;4.40;0.90;;;;;;;26.32;41.94;100942.47;5052539;28;20656;-70
2023/07/13 11:05:52;;;;;;;4.90;1.50;;;;;;;26.48;41.10;100942.09;5052911;28;20434;-71
2023/07/13 11:08:36;;;;;;;5.33;1.43;;;;;;;26.48;41.17;100950.41;5052682;28;20532;-68
2023/07/13 11:11:03;;;;;;;5.73;1.30;;;;;;;26.56;40.86;100946.41;5052796;28;20427;-70
2023/07/13 11:13:58;;;;;;;4.80;1.40;;;;;;;26.64;42.13;100945.97;5052811;28;20903;-69
2023/07/13 11:16:43;;;;;;;5.43;1.37;;;;;;;26.71;40.50;100950.72;5050656;28;20488;-70
2023/07/13 11:19:27;;;;;;;4.50;1.20;;;;;;;26.95;40.82;100948.25;5052556;28;20422;-70
2023/07/13 11:22:16;;;;;;;4.70;1.20;;;;;;;26.97;40.66;100952.22;5052365;28;20545;-71
2023/07/13 11:24:56;;;;;;;4.80;1.10;;;;;;;27.17;40.33;100963.66;5052374;28;20466;-69
2023/07/13 11:27:39;;;;;;;4.63;1.17;;;;;;;27.48;38.46;100950.75;5052498;28;20505;-71
2023/07/13 11:30:26;;;;;;;4.70;1.13;;;;;;;28.01;39.20;100943.19;5052730;28;20434;-70
2023/07/13 11:33:05;;;;;;;6.07;1.47;;;;;;;28.53;37.69;100954.25;5052121;28;20506;-70
2023/07/13 11:35:35;;;;;;;4.60;1.30;;;;;;;28.53;37.37;100955.03;5052271;28;20479;-70